createdAt,value
2017-04-14T00:00:39.579Z,69.44
2017-04-14T00:01:48.540Z,69.35
2017-04-14T00:02:57.793Z,69.25
2017-04-14T00:04:06.748Z,68.96
2017-04-14T00:05:16.022Z,69.25
2017-04-14T00:06:24.972Z,69.25
2017-04-14T00:07:34.011Z,69.54
2017-04-14T00:08:43.222Z,69.35
2017-04-14T00:09:52.185Z,69.12
2017-04-14T00:11:01.144Z,69.21
2017-04-14T00:12:10.192Z,69.15
2017-04-14T00:13:19.146Z,69.31
2017-04-14T00:14:28.348Z,69.15
2017-04-14T00:15:37.305Z,69.02
2017-04-14T00:16:46.261Z,69.5
2017-04-14T00:17:55.216Z,69.41
2017-04-14T00:19:04.176Z,69.6
2017-04-14T00:20:13.377Z,69.63
2017-04-14T00:21:22.334Z,69.5
2017-04-14T00:22:31.294Z,69.63
2017-04-14T00:23:40.248Z,69.5
2017-04-14T00:24:49.217Z,69.69
2017-04-14T00:25:58.417Z,69.88
2017-04-14T00:27:07.460Z,70.07
2017-04-14T00:28:16.406Z,70.26
2017-04-14T00:29:25.365Z,70.07
2017-04-14T00:30:34.316Z,69.88
2017-04-14T00:31:43.518Z,69.98
2017-04-14T00:32:52.471Z,69.69
2017-04-14T00:34:01.754Z,69.88
2017-04-14T00:35:10.712Z,69.79
2017-04-14T00:36:19.745Z,70.3
2017-04-14T00:37:28.957Z,69.6
2017-04-14T00:38:37.918Z,69.6
2017-04-14T00:39:46.870Z,69.69
2017-04-14T00:40:55.866Z,69.6
2017-04-14T00:42:04.814Z,70.07
2017-04-14T00:43:14.071Z,69.88
2017-04-14T00:44:23.031Z,69.98
2017-04-14T00:45:31.987Z,70.17
2017-04-14T00:46:40.940Z,70.07
2017-04-14T00:47:49.894Z,70.36
2017-04-14T00:48:59.204Z,70.26
2017-04-14T00:50:08.160Z,70.36
2017-04-14T00:51:17.112Z,70.74
2017-04-14T00:52:26.077Z,70.83
2017-04-14T00:53:35.041Z,71.12
2017-04-14T00:54:44.297Z,71.02
2017-04-14T00:55:53.249Z,71.02
2017-04-14T00:57:02.198Z,70.93
2017-04-14T00:58:11.156Z,70.54
2017-04-14T00:59:20.106Z,70.54
2017-04-14T01:00:29.391Z,70.45
2017-04-14T01:01:38.340Z,70.83
2017-04-14T01:02:47.294Z,71.12
2017-04-14T01:03:56.576Z,71.02
2017-04-14T01:05:05.525Z,70.83
2017-04-14T01:06:14.778Z,70.83
2017-04-14T01:07:23.730Z,70.74
2017-04-14T01:08:32.688Z,70.64
2017-04-14T01:09:41.975Z,71.5
2017-04-14T01:10:50.925Z,71.41
2017-04-14T01:12:00.123Z,71.22
2017-04-14T01:13:09.071Z,71.22
2017-04-14T01:14:18.021Z,71.5
2017-04-14T01:15:26.985Z,71.31
2017-04-14T01:16:35.942Z,71.41
2017-04-14T01:17:45.146Z,71.5
2017-04-14T01:18:54.102Z,71.31
2017-04-14T01:20:03.060Z,71.41
2017-04-14T01:21:12.014Z,71.41
2017-04-14T01:22:21.310Z,71.12
2017-04-14T01:23:30.513Z,71.12
2017-04-14T01:24:39.459Z,71.41
2017-04-14T01:25:48.412Z,71.27
2017-04-14T01:26:57.367Z,71.18
2017-04-14T01:28:06.327Z,71.66
2017-04-14T01:29:15.856Z,71.94
2017-04-14T01:30:24.813Z,71.84
2017-04-14T01:31:33.767Z,72.32
2017-04-14T01:32:42.714Z,72.41
2017-04-14T01:33:51.674Z,72.41
2017-04-14T01:35:01.264Z,71.94
2017-04-14T01:36:10.299Z,71.94
2017-04-14T01:37:19.261Z,72.22
2017-04-14T01:38:28.211Z,72.51
2017-04-14T01:39:37.159Z,72.51
2017-04-14T01:40:46.686Z,72.32
2017-04-14T01:41:55.642Z,72.6
2017-04-14T01:43:04.597Z,72.89
2017-04-14T01:44:13.557Z,72.79
2017-04-14T01:45:22.507Z,72.6
2017-04-14T01:46:31.758Z,72.7
2017-04-14T01:47:41.038Z,72.99
2017-04-14T01:48:49.994Z,73.27
2017-04-14T01:49:58.953Z,72.99
2017-04-14T01:51:07.909Z,73.18
2017-04-14T01:52:17.169Z,72.99
2017-04-14T01:53:26.129Z,73.18
2017-04-14T01:54:35.091Z,73.08
2017-04-14T01:55:44.052Z,72.89
2017-04-14T01:56:53.007Z,73.08
2017-04-14T01:58:02.212Z,73.08
2017-04-14T01:59:11.163Z,72.7
2017-04-14T02:00:20.118Z,73.27
2017-04-14T02:01:29.082Z,73.08
2017-04-14T02:02:38.039Z,72.89
2017-04-14T02:03:47.245Z,73.08
2017-04-14T02:04:56.199Z,73.18
2017-04-14T02:06:05.153Z,73.27
2017-04-14T02:07:14.428Z,73.08
2017-04-14T02:08:23.378Z,73.18
2017-04-14T02:09:32.589Z,72.7
2017-04-14T02:10:41.629Z,72.99
2017-04-14T02:11:50.585Z,72.79
2017-04-14T02:12:59.863Z,72.7
2017-04-14T02:14:08.821Z,73.27
2017-04-14T02:15:18.030Z,73.27
2017-04-14T02:16:26.994Z,72.7
2017-04-14T02:17:36.041Z,72.89
2017-04-14T02:18:45.327Z,73.08
2017-04-14T02:19:54.375Z,73.36
2017-04-14T02:21:03.625Z,73.36
2017-04-14T02:22:12.580Z,72.99
2017-04-14T02:23:21.533Z,73.55
2017-04-14T02:24:30.492Z,73.65
2017-04-14T02:25:39.444Z,73.65
2017-04-14T02:26:48.648Z,73.74
2017-04-14T02:27:57.603Z,73.65
2017-04-14T02:29:06.549Z,73.74
2017-04-14T02:30:15.502Z,73.55
2017-04-14T02:31:24.451Z,73.65
2017-04-14T02:32:33.656Z,73.55
2017-04-14T02:33:42.604Z,73.74
2017-04-14T02:34:51.556Z,73.46
2017-04-14T02:36:00.508Z,74.12
2017-04-14T02:37:09.456Z,74.12
2017-04-14T02:38:18.654Z,74.12
2017-04-14T02:39:27.611Z,74.31
2017-04-14T02:40:36.569Z,73.74
2017-04-14T02:41:45.529Z,74.69
2017-04-14T02:42:54.557Z,74.03
2017-04-14T02:44:03.763Z,74.31
2017-04-14T02:45:12.721Z,74.22
2017-04-14T02:46:21.675Z,74.51
2017-04-14T02:47:30.622Z,73.99
2017-04-14T02:48:39.579Z,74.27
2017-04-14T02:49:48.779Z,74.27
2017-04-14T02:50:57.732Z,73.42
2017-04-14T02:52:06.692Z,74.08
2017-04-14T02:53:15.639Z,74.66
2017-04-14T02:54:24.680Z,74.66
2017-04-14T02:55:33.935Z,74.56
2017-04-14T02:56:42.893Z,74.47
2017-04-14T02:57:51.845Z,74.56
2017-04-14T02:59:00.892Z,74.85
2017-04-14T03:00:09.847Z,74.66
2017-04-14T03:01:19.103Z,75.04
2017-04-14T03:02:28.053Z,75.04
2017-04-14T03:03:37.053Z,75.13
2017-04-14T03:04:46.009Z,74.75
2017-04-14T03:05:54.960Z,74.85
2017-04-14T03:07:04.166Z,74.94
2017-04-14T03:08:13.114Z,74.75
2017-04-14T03:09:22.065Z,75.23
2017-04-14T03:10:31.015Z,75.13
2017-04-14T03:11:39.967Z,75.32
2017-04-14T03:12:49.173Z,75.51
2017-04-14T03:13:58.131Z,74.66
2017-04-14T03:15:07.174Z,75.23
2017-04-14T03:16:16.135Z,75.42
2017-04-14T03:17:25.083Z,75.42
2017-04-14T03:18:34.334Z,74.94
2017-04-14T03:19:43.283Z,75.42
2017-04-14T03:20:52.231Z,75.42
2017-04-14T03:22:01.226Z,75.13
2017-04-14T03:23:10.176Z,75.42
2017-04-14T03:24:19.379Z,75.23
2017-04-14T03:25:28.664Z,75.51
2017-04-14T03:26:37.943Z,75.6
2017-04-14T03:27:46.893Z,75.42
2017-04-14T03:28:55.847Z,75.7
2017-04-14T03:30:05.049Z,75.6
2017-04-14T03:31:13.996Z,75.51
2017-04-14T03:32:22.944Z,75.32
2017-04-14T03:33:31.905Z,75.99
2017-04-14T03:34:41.200Z,75.6
2017-04-14T03:35:50.401Z,75.51
2017-04-14T03:36:59.363Z,75.79
2017-04-14T03:38:08.318Z,75.7
2017-04-14T03:39:17.270Z,75.7
2017-04-14T03:40:26.229Z,75.51
2017-04-14T03:41:35.486Z,75.32
2017-04-14T03:42:44.759Z,75.89
2017-04-14T03:43:53.713Z,75.32
2017-04-14T03:45:02.663Z,75.79
2017-04-14T03:46:11.703Z,75.7
2017-04-14T03:47:20.942Z,75.89
2017-04-14T03:48:29.898Z,75.79
2017-04-14T03:49:38.852Z,75.79
2017-04-14T03:50:47.806Z,75.7
2017-04-14T03:51:56.761Z,75.89
2017-04-14T03:53:05.965Z,75.99
2017-04-14T03:54:15.246Z,75.99
2017-04-14T03:55:24.202Z,75.99
2017-04-14T03:56:33.158Z,75.79
2017-04-14T03:57:42.116Z,75.99
2017-04-14T03:58:51.322Z,75.7
2017-04-14T04:00:00.283Z,75.79
2017-04-14T04:01:09.234Z,75.7
2017-04-14T04:02:18.184Z,75.89
2017-04-14T04:03:27.148Z,75.89
2017-04-14T04:04:36.358Z,75.32
2017-04-14T04:05:45.308Z,75.42
2017-04-14T04:06:54.256Z,75.89
2017-04-14T04:08:03.214Z,75.99
2017-04-14T04:09:12.167Z,75.42
2017-04-14T04:10:21.372Z,75.6
2017-04-14T04:11:30.321Z,75.89
2017-04-14T04:12:39.275Z,75.6
2017-04-14T04:13:48.281Z,75.99
2017-04-14T04:14:57.233Z,75.7
2017-04-14T04:16:06.445Z,76.18
2017-04-14T04:17:15.398Z,75.99
2017-04-14T04:18:24.350Z,76.37
2017-04-14T04:19:33.300Z,75.89
2017-04-14T04:20:42.250Z,75.99
2017-04-14T04:21:51.588Z,75.7
2017-04-14T04:23:00.535Z,75.99
2017-04-14T04:24:09.489Z,76.18
2017-04-14T04:25:18.445Z,75.7
2017-04-14T04:26:27.395Z,75.89
2017-04-14T04:27:36.609Z,75.51
2017-04-14T04:28:45.562Z,75.6
2017-04-14T04:29:54.516Z,75.7
2017-04-14T04:31:03.477Z,75.6
2017-04-14T04:32:12.433Z,75.7
2017-04-14T04:33:21.639Z,75.7
2017-04-14T04:34:30.917Z,75.32
2017-04-14T04:35:39.863Z,75.42
2017-04-14T04:36:48.820Z,75.42
2017-04-14T04:37:57.819Z,75.55
2017-04-14T04:39:07.339Z,75.36
2017-04-14T04:40:16.291Z,74.6
2017-04-14T04:41:25.650Z,74.98
2017-04-14T04:42:34.600Z,74.98
2017-04-14T04:43:43.547Z,74.98
2017-04-14T04:44:52.750Z,75.17
2017-04-14T04:46:01.713Z,75.26
2017-04-14T04:47:10.994Z,74.66
2017-04-14T04:48:19.947Z,74.69
2017-04-14T04:49:28.900Z,75.07
2017-04-14T04:50:38.102Z,74.69
2017-04-14T04:51:47.054Z,75.07
2017-04-14T04:52:56.009Z,74.79
2017-04-14T04:54:05.058Z,74.69
2017-04-14T04:55:14.058Z,74.88
2017-04-14T04:56:23.257Z,74.12
2017-04-14T04:57:32.216Z,74.51
2017-04-14T04:58:41.173Z,74.6
2017-04-14T04:59:50.123Z,74.51
2017-04-14T05:00:59.081Z,74.22
2017-04-14T05:02:08.619Z,74.12
2017-04-14T05:03:17.571Z,74.12
2017-04-14T05:04:26.522Z,74.12
2017-04-14T05:05:35.475Z,74.12
2017-04-14T05:06:44.426Z,74.12
2017-04-14T05:07:53.627Z,74.51
2017-04-14T05:09:02.578Z,74.79
2017-04-14T05:10:11.610Z,74.31
2017-04-14T05:11:20.564Z,74.31
2017-04-14T05:12:29.521Z,73.93
2017-04-14T05:13:38.723Z,74.6
2017-04-14T05:14:47.685Z,74.51
2017-04-14T05:15:56.645Z,74.12
2017-04-14T05:17:05.603Z,74.22
2017-04-14T05:18:14.555Z,74.31
2017-04-14T05:19:23.764Z,74.22
2017-04-14T05:20:32.804Z,73.84
2017-04-14T05:21:41.756Z,74.12
2017-04-14T05:22:50.712Z,73.36
2017-04-14T05:23:59.678Z,73.84
2017-04-14T05:25:08.888Z,73.55
2017-04-14T05:26:17.842Z,73.36
2017-04-14T05:27:26.791Z,73.55
2017-04-14T05:28:35.745Z,74.03
2017-04-14T05:29:44.695Z,73.55
2017-04-14T05:30:53.894Z,73.65
2017-04-14T05:32:02.852Z,73.84
2017-04-14T05:33:11.802Z,73.65
2017-04-14T05:34:20.752Z,73.49
2017-04-14T05:35:29.788Z,73.84
2017-04-14T05:36:38.998Z,73.4
2017-04-14T05:37:47.953Z,73.4
2017-04-14T05:38:56.901Z,73.49
2017-04-14T05:40:05.853Z,73.49
2017-04-14T05:41:14.816Z,73.18
2017-04-14T05:42:24.069Z,73.59
2017-04-14T05:43:33.108Z,73.55
2017-04-14T05:44:42.062Z,73.84
2017-04-14T05:45:51.020Z,73.55
2017-04-14T05:46:59.971Z,73.69
2017-04-14T05:48:09.178Z,73.88
2017-04-14T05:49:18.456Z,73.59
2017-04-14T05:50:27.410Z,73.4
2017-04-14T05:51:36.367Z,73.49
2017-04-14T05:52:45.322Z,73.11
2017-04-14T05:53:54.535Z,73.3
2017-04-14T05:55:03.485Z,73.69
2017-04-14T05:56:12.433Z,73.78
2017-04-14T05:57:21.706Z,73.78
2017-04-14T05:58:30.659Z,73.3
2017-04-14T05:59:39.919Z,73.11
2017-04-14T06:00:48.872Z,73.11
2017-04-14T06:01:57.821Z,73.3
2017-04-14T06:03:06.773Z,73.49
2017-04-14T06:04:15.729Z,73.49
2017-04-14T06:05:24.933Z,73.21
2017-04-14T06:06:33.890Z,73.3
2017-04-14T06:07:42.940Z,73.21
2017-04-14T06:08:51.900Z,72.74
2017-04-14T06:10:00.848Z,73.3
2017-04-14T06:11:10.148Z,72.92
2017-04-14T06:12:19.098Z,72.74
2017-04-14T06:13:28.049Z,72.74
2017-04-14T06:14:37.090Z,72.45
2017-04-14T06:15:46.131Z,72.64
2017-04-14T06:16:55.335Z,72.26
2017-04-14T06:18:04.380Z,72.45
2017-04-14T06:19:13.343Z,72.45
2017-04-14T06:20:22.299Z,71.97
2017-04-14T06:21:31.254Z,72.07
2017-04-14T06:22:40.453Z,71.78
2017-04-14T06:23:49.411Z,72.16
2017-04-14T06:24:58.370Z,72.67
2017-04-14T06:26:07.337Z,72.07
2017-04-14T06:27:16.289Z,71.97
2017-04-14T06:28:25.497Z,71.78
2017-04-14T06:29:34.455Z,71.69
2017-04-14T06:30:43.402Z,71.78
2017-04-14T06:31:52.353Z,71.41
2017-04-14T06:33:01.306Z,71.12
2017-04-14T06:34:10.509Z,71.53
2017-04-14T06:35:19.460Z,71.31
2017-04-14T06:36:28.736Z,71.44
2017-04-14T06:37:37.686Z,71.02
2017-04-14T06:38:46.728Z,71.53
2017-04-14T06:39:55.937Z,71.53
2017-04-14T06:41:04.977Z,70.87
2017-04-14T06:42:13.929Z,71.25
2017-04-14T06:43:22.898Z,71.06
2017-04-14T06:44:32.180Z,70.68
2017-04-14T06:45:41.387Z,70.2
2017-04-14T06:46:50.339Z,69.92
2017-04-14T06:47:59.292Z,69.63
2017-04-14T06:49:08.337Z,69.19
2017-04-14T06:50:17.300Z,69
2017-04-14T06:51:26.507Z,69.19
2017-04-14T06:52:35.465Z,68.81
2017-04-14T06:53:44.421Z,68.9
2017-04-14T06:54:53.372Z,68.9
2017-04-14T06:56:02.325Z,69.1
2017-04-14T06:57:11.529Z,68.62
2017-04-14T06:58:20.481Z,68.52
2017-04-14T06:59:29.435Z,68.52
2017-04-14T07:00:38.470Z,68.43
2017-04-14T07:01:47.420Z,67.95
2017-04-14T07:02:56.627Z,68.15
2017-04-14T07:04:05.591Z,68.05
2017-04-14T07:05:14.547Z,67.86
2017-04-14T07:06:23.512Z,67.76
2017-04-14T07:07:32.463Z,67.51
2017-04-14T07:08:41.683Z,67.32
2017-04-14T07:09:50.635Z,66.85
2017-04-14T07:10:59.587Z,66.75
2017-04-14T07:12:08.872Z,66.56
2017-04-14T07:13:17.831Z,65.64
2017-04-14T07:14:27.126Z,65.99
2017-04-14T07:15:36.258Z,65.55
2017-04-14T07:16:45.212Z,64.69
2017-04-14T07:17:54.174Z,64.5
2017-04-14T07:19:03.133Z,64.69
2017-04-14T07:20:12.335Z,64.12
2017-04-14T07:21:21.291Z,63.92
2017-04-14T07:22:30.248Z,63.54
2017-04-14T07:23:39.298Z,63.45
2017-04-14T07:24:48.255Z,63.26
2017-04-14T07:25:57.461Z,62.59
2017-04-14T07:27:06.415Z,62.02
2017-04-14T07:28:15.384Z,62.3
2017-04-14T07:29:24.346Z,62.88
2017-04-14T07:30:33.624Z,62.78
2017-04-14T07:31:42.833Z,62.68
2017-04-14T07:32:51.794Z,62.81
2017-04-14T07:34:00.755Z,62.81
2017-04-14T07:35:09.709Z,62.34
2017-04-14T07:36:19.071Z,61.29
2017-04-14T07:37:28.364Z,61.57
2017-04-14T07:38:37.328Z,61.57
2017-04-14T07:39:46.284Z,61.48
2017-04-14T07:40:55.238Z,61.29
2017-04-14T07:42:04.194Z,61.57
2017-04-14T07:43:13.742Z,61.76
2017-04-14T07:44:22.698Z,61.67
2017-04-14T07:45:31.975Z,61.76
2017-04-14T07:46:41.015Z,61.29
2017-04-14T07:47:49.983Z,61.1
2017-04-14T07:48:59.185Z,60.62
2017-04-14T07:50:08.184Z,60.43
2017-04-14T07:51:17.140Z,60.91
2017-04-14T07:52:26.105Z,60.52
2017-04-14T07:53:35.060Z,60.81
2017-04-14T07:54:44.264Z,60.43
2017-04-14T07:55:53.304Z,60.33
2017-04-14T07:57:02.258Z,60.33
2017-04-14T07:58:11.215Z,61
2017-04-14T07:59:20.169Z,60.33
2017-04-14T08:00:29.385Z,60.72
2017-04-14T08:01:38.340Z,60.62
2017-04-14T08:02:47.296Z,60.52
2017-04-14T08:03:56.342Z,61.1
2017-04-14T08:05:05.294Z,60.72
2017-04-14T08:06:14.586Z,60.43
2017-04-14T08:07:23.547Z,59.48
2017-04-14T08:08:32.507Z,59.76
2017-04-14T08:09:41.457Z,59.67
2017-04-14T08:10:50.410Z,59.76
2017-04-14T08:11:59.625Z,59.86
2017-04-14T08:13:08.677Z,59.57
2017-04-14T08:14:17.641Z,59.86
2017-04-14T08:15:26.596Z,59.12
2017-04-14T08:16:35.548Z,59.09
2017-04-14T08:17:44.755Z,58.91
2017-04-14T08:18:53.720Z,59.12
2017-04-14T08:20:02.679Z,59.03
2017-04-14T08:21:11.634Z,58.84
2017-04-14T08:22:20.592Z,59.03
2017-04-14T08:23:29.793Z,58.75
2017-04-14T08:24:38.754Z,58.36
2017-04-14T08:25:47.705Z,58.26
2017-04-14T08:26:56.659Z,58.26
2017-04-14T08:28:05.619Z,58.84
2017-04-14T08:29:14.998Z,58.75
2017-04-14T08:30:23.963Z,57.98
2017-04-14T08:31:33.092Z,57.03
2017-04-14T08:32:42.135Z,57.12
2017-04-14T08:33:51.096Z,57.22
2017-04-14T08:35:00.309Z,56.65
2017-04-14T08:36:09.633Z,57.31
2017-04-14T08:37:18.584Z,56.36
2017-04-14T08:38:27.552Z,56.36
2017-04-14T08:39:36.612Z,56.17
2017-04-14T08:40:45.822Z,55.98
2017-04-14T08:41:54.782Z,56.26
2017-04-14T08:43:03.743Z,55.6
2017-04-14T08:44:12.698Z,55.98
2017-04-14T08:45:21.650Z,55.98
2017-04-14T08:46:30.853Z,56.26
2017-04-14T08:47:39.809Z,55.98
2017-04-14T08:48:48.771Z,56.55
2017-04-14T08:49:57.736Z,56.26
2017-04-14T08:51:07.104Z,56.74
2017-04-14T08:52:16.316Z,56.74
2017-04-14T08:53:25.272Z,56.36
2017-04-14T08:54:34.230Z,55.98
2017-04-14T08:55:43.189Z,55.15
2017-04-14T08:56:52.143Z,55.43
2017-04-14T08:58:01.352Z,55.24
2017-04-14T08:59:10.311Z,55.15
2017-04-14T09:00:19.275Z,55.53
2017-04-14T09:01:28.238Z,55.15
2017-04-14T09:02:37.190Z,54.57
2017-04-14T09:03:46.402Z,54.48
2017-04-14T09:04:55.360Z,54.19
2017-04-14T09:06:04.329Z,54.1
2017-04-14T09:07:13.616Z,54.57
2017-04-14T09:08:22.579Z,54.29
2017-04-14T09:09:31.872Z,54.48
2017-04-14T09:10:40.828Z,54.1
2017-04-14T09:11:49.785Z,54.57
2017-04-14T09:12:58.743Z,54.48
2017-04-14T09:14:07.829Z,54.48
2017-04-14T09:15:17.111Z,54.1
2017-04-14T09:16:26.070Z,53.81
2017-04-14T09:17:35.022Z,54.1
2017-04-14T09:18:43.985Z,53.91
2017-04-14T09:19:52.950Z,53.81
2017-04-14T09:21:02.161Z,54.19
2017-04-14T09:22:11.114Z,55.15
2017-04-14T09:23:20.157Z,55.05
2017-04-14T09:24:29.123Z,55.05
2017-04-14T09:25:38.413Z,54.77
2017-04-14T09:26:47.633Z,54.29
2017-04-14T09:27:56.768Z,54.57
2017-04-14T09:29:05.718Z,54.48
2017-04-14T09:30:14.680Z,55.12
2017-04-14T09:31:23.635Z,54.83
2017-04-14T09:32:32.843Z,55.21
2017-04-14T09:33:41.805Z,54.93
2017-04-14T09:34:50.775Z,54.93
2017-04-14T09:35:59.737Z,55.6
2017-04-14T09:37:08.692Z,55.79
2017-04-14T09:38:17.901Z,56.36
2017-04-14T09:39:26.852Z,55.79
2017-04-14T09:40:35.806Z,55.31
2017-04-14T09:41:44.852Z,55.41
2017-04-14T09:42:53.806Z,55.31
2017-04-14T09:44:03.015Z,55.05
2017-04-14T09:45:11.974Z,54.64
2017-04-14T09:46:20.933Z,54.86
2017-04-14T09:47:29.890Z,54.77
2017-04-14T09:48:38.854Z,55.15
2017-04-14T09:49:48.068Z,55.15
2017-04-14T09:50:57.026Z,54.48
2017-04-14T09:52:05.977Z,54.1
2017-04-14T09:53:14.938Z,54.48
2017-04-14T09:54:23.900Z,54.48
2017-04-14T09:55:33.105Z,54.29
2017-04-14T09:56:42.072Z,54.36
2017-04-14T09:57:51.027Z,54.67
2017-04-14T09:58:59.988Z,53.91
2017-04-14T10:00:09.038Z,54
2017-04-14T10:01:18.245Z,53.33
2017-04-14T10:02:27.252Z,52.48
2017-04-14T10:03:36.296Z,52.98
2017-04-14T10:04:45.254Z,52.5
2017-04-14T10:05:54.211Z,52.5
2017-04-14T10:07:03.426Z,52.22
2017-04-14T10:08:12.394Z,51.64
2017-04-14T10:09:21.352Z,51.83
2017-04-14T10:10:30.312Z,51.64
2017-04-14T10:11:39.268Z,52.03
2017-04-14T10:12:48.474Z,51.26
2017-04-14T10:13:57.438Z,50.98
2017-04-14T10:15:06.412Z,50.81
2017-04-14T10:16:15.373Z,50.04
2017-04-14T10:17:24.412Z,50.04
2017-04-14T10:18:33.638Z,49.95
2017-04-14T10:19:42.923Z,50.04
2017-04-14T10:20:51.877Z,50.4
2017-04-14T10:22:01.157Z,49.83
2017-04-14T10:23:10.123Z,49.93
2017-04-14T10:24:19.330Z,50.21
2017-04-14T10:25:28.293Z,50.33
2017-04-14T10:26:37.246Z,50.24
2017-04-14T10:27:46.204Z,49.57
2017-04-14T10:28:55.162Z,49.66
2017-04-14T10:30:04.381Z,49.95
2017-04-14T10:31:13.341Z,49.78
2017-04-14T10:32:22.296Z,49.21
2017-04-14T10:33:31.665Z,49.21
2017-04-14T10:34:40.673Z,48.83
2017-04-14T10:35:49.973Z,48.25
2017-04-14T10:36:58.931Z,48.35
2017-04-14T10:38:07.970Z,47.87
2017-04-14T10:39:16.940Z,47.49
2017-04-14T10:40:25.899Z,47.68
2017-04-14T10:41:35.525Z,47.3
2017-04-14T10:42:44.487Z,47.11
2017-04-14T10:43:53.453Z,46.56
2017-04-14T10:45:02.411Z,46.08
2017-04-14T10:46:11.694Z,46.56
2017-04-14T10:47:20.907Z,47.11
2017-04-14T10:48:29.869Z,47.23
2017-04-14T10:49:38.831Z,47.61
2017-04-14T10:50:47.787Z,47.39
2017-04-14T10:51:56.749Z,47.3
2017-04-14T10:53:05.960Z,47.49
2017-04-14T10:54:14.921Z,47.42
2017-04-14T10:55:23.884Z,47.61
2017-04-14T10:56:32.838Z,46.75
2017-04-14T10:57:41.797Z,47.42
2017-04-14T10:58:51.016Z,47.23
2017-04-14T10:59:59.980Z,46.08
2017-04-14T11:01:08.941Z,46.08
2017-04-14T11:02:17.944Z,45.51
2017-04-14T11:03:26.902Z,45.51
2017-04-14T11:04:36.113Z,45.31
2017-04-14T11:05:45.071Z,46.17
2017-04-14T11:06:54.030Z,46.37
2017-04-14T11:08:02.990Z,46.46
2017-04-14T11:09:12.046Z,46.27
2017-04-14T11:10:21.259Z,46.17
2017-04-14T11:11:30.218Z,46.27
2017-04-14T11:12:39.178Z,46.27
2017-04-14T11:13:48.148Z,46.46
2017-04-14T11:14:57.109Z,46.56
2017-04-14T11:16:06.327Z,46.66
2017-04-14T11:17:15.376Z,46.46
2017-04-14T11:18:24.419Z,46.46
2017-04-14T11:19:33.464Z,46.17
2017-04-14T11:20:42.420Z,45.81
2017-04-14T11:21:51.632Z,44.67
2017-04-14T11:23:00.595Z,44.86
2017-04-14T11:24:09.643Z,45.22
2017-04-14T11:25:18.612Z,45.51
2017-04-14T11:26:27.573Z,45.53
2017-04-14T11:27:36.868Z,45.05
2017-04-14T11:28:45.834Z,46.2
2017-04-14T11:29:55.121Z,46.1
2017-04-14T11:31:04.082Z,45.91
2017-04-14T11:32:13.039Z,45.15
2017-04-14T11:33:22.247Z,45.53
2017-04-14T11:34:31.212Z,45.43
2017-04-14T11:35:40.166Z,44.76
2017-04-14T11:36:49.124Z,44.38
2017-04-14T11:37:58.080Z,44.86
2017-04-14T11:39:07.286Z,44.48
2017-04-14T11:40:16.333Z,44.76
2017-04-14T11:41:25.294Z,44.95
2017-04-14T11:42:34.251Z,45.05
2017-04-14T11:43:43.548Z,44.98
2017-04-14T11:44:52.785Z,44.31
2017-04-14T11:46:05.869Z,43.92
2017-04-14T11:47:14.832Z,43.83
2017-04-14T11:48:23.797Z,44.31
2017-04-14T11:49:32.760Z,44.86
2017-04-14T11:50:42.146Z,44.5
2017-04-14T11:51:51.101Z,44.4
2017-04-14T11:53:00.612Z,44.4
2017-04-14T11:54:09.746Z,43.63
2017-04-14T11:55:18.713Z,43.06
2017-04-14T11:56:28.005Z,42.49
2017-04-14T11:57:36.962Z,42.2
2017-04-14T11:58:45.925Z,42.11
2017-04-14T11:59:54.885Z,42.3
2017-04-14T12:01:03.847Z,42.01
2017-04-14T12:02:13.063Z,42.3
2017-04-14T12:03:22.026Z,42.4
2017-04-14T12:04:31.317Z,42.4
2017-04-14T12:05:40.282Z,42.49
2017-04-14T12:06:49.242Z,42.01
2017-04-14T12:07:58.790Z,41.46
2017-04-14T12:09:07.757Z,41.36
2017-04-14T12:10:16.724Z,41.44
2017-04-14T12:11:25.684Z,41.44
2017-04-14T12:12:34.643Z,41.82
2017-04-14T12:13:43.857Z,41.82
2017-04-14T12:14:52.817Z,41.91
2017-04-14T12:16:01.785Z,41.7
2017-04-14T12:17:10.747Z,42.11
2017-04-14T12:18:19.711Z,42.37
2017-04-14T12:19:28.927Z,42.76
2017-04-14T12:20:37.893Z,43.14
2017-04-14T12:21:46.847Z,42.56
2017-04-14T12:22:55.825Z,42.37
2017-04-14T12:24:04.789Z,42.27
2017-04-14T12:25:14.016Z,42.93
2017-04-14T12:26:23.717Z,42.83
2017-04-14T12:27:32.688Z,43.3
2017-04-14T12:28:41.647Z,43.02
2017-04-14T12:29:50.611Z,43.79
2017-04-14T12:30:59.814Z,43.88
2017-04-14T12:32:08.771Z,43.98
2017-04-14T12:33:17.730Z,44.36
2017-04-14T12:34:26.697Z,44.36
2017-04-14T12:35:35.659Z,43.59
2017-04-14T12:36:44.879Z,43.21
2017-04-14T12:37:53.843Z,43.12
2017-04-14T12:39:02.810Z,43.02
2017-04-14T12:40:11.766Z,43.59
2017-04-14T12:41:20.725Z,43.69
2017-04-14T12:42:29.933Z,43.69
2017-04-14T12:43:38.893Z,43.79
2017-04-14T12:44:47.854Z,43.69
2017-04-14T12:45:56.817Z,43.12
2017-04-14T12:47:05.781Z,42.94
2017-04-14T12:48:14.995Z,42.76
2017-04-14T12:49:23.959Z,41.99
2017-04-14T12:50:33.247Z,42.85
2017-04-14T12:51:42.199Z,42.27
2017-04-14T12:52:51.166Z,41.89
2017-04-14T12:54:00.377Z,42.47
2017-04-14T12:55:09.334Z,42.85
2017-04-14T12:56:18.290Z,42.37
2017-04-14T12:57:27.248Z,42.08
2017-04-14T12:58:36.214Z,42.47
2017-04-14T12:59:45.437Z,42.94
2017-04-14T13:00:54.394Z,42.18
2017-04-14T13:02:03.356Z,41.8
2017-04-14T13:03:12.319Z,41.87
2017-04-14T13:04:21.287Z,42.25
2017-04-14T13:05:30.504Z,42.44
2017-04-14T13:06:39.467Z,42.93
2017-04-14T13:07:48.429Z,42.64
2017-04-14T13:08:57.400Z,42.35
2017-04-14T13:10:06.476Z,42.44
2017-04-14T13:11:15.689Z,42.9
2017-04-14T13:12:24.971Z,43.09
2017-04-14T13:13:33.938Z,43.48
2017-04-14T13:14:42.900Z,43.48
2017-04-14T13:15:51.856Z,44.07
2017-04-14T13:17:01.070Z,44.34
2017-04-14T13:18:10.032Z,44.15
2017-04-14T13:19:19.077Z,43.86
2017-04-14T13:20:28.045Z,43.48
2017-04-14T13:21:37.005Z,43.86
2017-04-14T13:22:46.218Z,43.95
2017-04-14T13:23:55.178Z,43.95
2017-04-14T13:25:04.226Z,44.34
2017-04-14T13:26:13.186Z,44.34
2017-04-14T13:27:22.148Z,44.24
2017-04-14T13:28:31.406Z,44.34
2017-04-14T13:29:40.374Z,44.91
2017-04-14T13:30:50.068Z,44.34
2017-04-14T13:31:59.022Z,43.66
2017-04-14T13:33:07.981Z,41.85
2017-04-14T13:34:17.188Z,41.95
2017-04-14T13:35:26.235Z,42.71
2017-04-14T13:36:35.199Z,43.12
2017-04-14T13:37:44.612Z,42.83
2017-04-14T13:38:53.572Z,42.44
2017-04-14T13:40:02.780Z,42.44
2017-04-14T13:41:11.824Z,42.93
2017-04-14T13:42:20.783Z,42.07
2017-04-14T13:43:29.742Z,42.33
2017-04-14T13:44:38.883Z,42.64
2017-04-14T13:45:48.422Z,42.81
2017-04-14T13:46:57.387Z,42.61
2017-04-14T13:48:06.343Z,42.64
2017-04-14T13:49:15.304Z,43.21
2017-04-14T13:50:24.261Z,41.87
2017-04-14T13:51:33.468Z,41.49
2017-04-14T13:52:42.528Z,41.97
2017-04-14T13:53:51.486Z,41.78
2017-04-14T13:55:00.454Z,41.87
2017-04-14T13:56:09.427Z,41.97
2017-04-14T13:57:18.643Z,41.97
2017-04-14T13:58:27.689Z,41.3
2017-04-14T13:59:36.738Z,41.3
2017-04-14T14:00:45.832Z,41.01
2017-04-14T14:01:54.783Z,41.39
2017-04-14T14:03:04.076Z,42.25
2017-04-14T14:04:13.374Z,41.97
2017-04-14T14:05:22.335Z,41.78
2017-04-14T14:06:31.294Z,41.87
2017-04-14T14:07:40.259Z,41.87
2017-04-14T14:08:49.467Z,41.68
2017-04-14T14:09:58.424Z,41.58
2017-04-14T14:11:07.711Z,41.66
2017-04-14T14:12:16.667Z,41.49
2017-04-14T14:13:25.711Z,41.56
2017-04-14T14:14:34.921Z,41.49
2017-04-14T14:15:43.875Z,41.97
2017-04-14T14:16:52.831Z,41.39
2017-04-14T14:18:02.115Z,41.58
2017-04-14T14:19:11.083Z,41.97
2017-04-14T14:20:20.303Z,42.35
2017-04-14T14:21:29.258Z,41.97
2017-04-14T14:22:38.219Z,41.87
2017-04-14T14:23:47.186Z,41.68
2017-04-14T14:24:56.145Z,41.68
2017-04-14T14:26:05.354Z,42.16
2017-04-14T14:27:14.315Z,41.87
2017-04-14T14:28:23.275Z,42.16
2017-04-14T14:29:32.320Z,42.44
2017-04-14T14:30:41.285Z,41.78
2017-04-14T14:31:50.587Z,40.72
2017-04-14T14:32:59.543Z,40.15
2017-04-14T14:34:08.831Z,40.25
2017-04-14T14:35:17.792Z,40.72
2017-04-14T14:36:26.749Z,40.82
2017-04-14T14:37:36.074Z,40.34
2017-04-14T14:38:45.042Z,40.25
2017-04-14T14:39:54.001Z,41.01
2017-04-14T14:41:02.957Z,41.11
2017-04-14T14:42:12.241Z,40.92
2017-04-14T14:43:21.452Z,41.3
2017-04-14T14:44:30.421Z,41.58
2017-04-14T14:45:39.383Z,40.26
2017-04-14T14:46:48.351Z,40.36
2017-04-14T14:47:57.311Z,40.75
2017-04-14T14:49:06.521Z,40.65
2017-04-14T14:50:15.491Z,39.12
2017-04-14T14:51:24.445Z,38.74
2017-04-14T14:52:33.403Z,38.45